Time;durP1;ratioP1;P1;durP2;ratioP2;P2;SDS_P1;SDS_P2;PMS_P1;PMS_P2;Temp;Humidity;BMP_temperature;BMP_pressure;BME280_temperature;BME280_humidity;BME280_pressure;Samples;Min_cycle;Max_cycle;Signal;HPM_P1;HPM_P2
2023/05/06 00:00:21;;;;;;;;;;;14.70;99.90;;;;;;5093513;28;20008;-61
2023/05/06 00:02:47;;;;;;;;;;;14.70;99.90;;;;;;5093435;28;20055;-62
2023/05/06 00:05:13;;;;;;;;;;;14.70;99.90;;;;;;5093343;28;19985;-61
2023/05/06 00:07:38;;;;;;;;;;;14.70;99.90;;;;;;5093387;28;20034;-61
2023/05/06 00:10:04;;;;;;;;;;;14.70;99.90;;;;;;5093547;28;19985;-61
2023/05/06 00:12:30;;;;;;;;;;;14.60;99.90;;;;;;5093555;28;19997;-60
2023/05/06 00:14:55;;;;;;;;;;;14.70;99.90;;;;;;5093314;28;20412;-61
2023/05/06 00:17:21;;;;;;;;;;;14.60;99.90;;;;;;5093362;28;19985;-61
2023/05/06 00:19:47;;;;;;;;;;;14.60;99.90;;;;;;5093254;28;20042;-61
2023/05/06 00:22:12;;;;;;;;;;;14.50;99.90;;;;;;5093389;28;20131;-60
2023/05/06 00:24:38;;;;;;;;;;;14.40;99.90;;;;;;5093417;28;20035;-61
2023/05/06 00:27:03;;;;;;;;;;;14.40;99.90;;;;;;5095497;28;20042;-60
2023/05/06 00:29:29;;;;;;;;;;;14.40;99.90;;;;;;5096628;28;19989;-61
2023/05/06 00:31:54;;;;;;;;;;;14.20;99.90;;;;;;5096782;28;20024;-60
2023/05/06 00:34:20;;;;;;;;;;;14.10;99.90;;;;;;5096843;28;20035;-61
2023/05/06 00:36:45;;;;;;;;;;;14.00;99.90;;;;;;5096760;28;19985;-61
2023/05/06 00:39:11;;;;;;;;;;;13.90;99.90;;;;;;5096410;28;20024;-61
2023/05/06 00:41:36;;;;;;;;;;;13.80;99.90;;;;;;5096664;28;19989;-61
2023/05/06 00:44:02;;;;;;;;;;;13.80;99.90;;;;;;5096366;28;20001;-61
2023/05/06 00:46:28;;;;;;;;;;;13.70;99.90;;;;;;5096481;28;19989;-62
2023/05/06 00:48:53;;;;;;;;;;;13.70;99.90;;;;;;5096473;28;20046;-61
2023/05/06 00:51:19;;;;;;;;;;;13.70;99.90;;;;;;5096568;28;20403;-60
2023/05/06 00:53:47;;;;;;;;;;;13.80;99.90;;;;;;5096395;28;19993;-61
2023/05/06 00:56:14;;;;;;;;;;;13.80;99.90;;;;;;5096393;28;19995;-61
2023/05/06 00:58:40;;;;;;;;;;;13.80;99.90;;;;;;5096176;28;19989;-61
2023/05/06 01:01:07;;;;;;;;;;;13.80;99.90;;;;;;5096175;28;20016;-61
2023/05/06 01:03:32;;;;;;;;;;;13.90;99.90;;;;;;5096205;28;19989;-62
2023/05/06 01:05:58;;;;;;;;;;;13.90;99.90;;;;;;5096294;28;19995;-60
2023/05/06 01:08:41;;;;;;;;;;;13.90;99.90;;;;;;5096046;28;19985;-61
2023/05/06 01:11:15;;;;;;;;;;;13.90;99.90;;;;;;5096128;28;19985;-61
2023/05/06 01:13:51;;;;;;;;;;;13.90;99.90;;;;;;5095829;28;19985;-61
2023/05/06 01:16:22;;;;;;;;;;;13.90;99.90;;;;;;5096285;28;20388;-62
2023/05/06 01:18:48;;;;;;;;;;;13.90;99.90;;;;;;5096018;28;20028;-61
2023/05/06 01:21:14;;;;;;;;;;;13.80;99.90;;;;;;5095821;28;20004;-62
2023/05/06 01:23:49;;;;;;;;;;;13.80;99.90;;;;;;5095863;28;19996;-61
2023/05/06 01:26:14;;;;;;;;;;;13.80;99.90;;;;;;5095800;28;19985;-61
2023/05/06 01:28:40;;;;;;;;;;;13.70;99.90;;;;;;5095586;28;19996;-61
2023/05/06 01:31:09;;;;;;;;;;;13.60;99.90;;;;;;5095725;28;19993;-62
2023/05/06 01:33:35;;;;;;;;;;;13.60;99.90;;;;;;5095604;28;20008;-61
2023/05/06 01:36:14;;;;;;;;;;;13.50;99.90;;;;;;5095577;28;19989;-61
2023/05/06 01:38:56;;;;;;;;;;;13.50;99.90;;;;;;5094576;28;20393;-61
2023/05/06 01:41:23;;;;;;;;;;;13.60;99.90;;;;;;5095393;28;20005;-60
2023/05/06 01:43:51;;;;;;;;;;;13.60;99.90;;;;;;5095234;28;20104;-61
2023/05/06 01:46:18;;;;;;;;;;;13.60;99.90;;;;;;5095642;28;19996;-61
2023/05/06 01:48:44;;;;;;;;;;;13.50;99.90;;;;;;5095339;28;20028;-62
2023/05/06 01:51:10;;;;;;;;;;;13.50;99.90;;;;;;5095414;28;20000;-62
2023/05/06 01:53:35;;;;;;;;;;;13.40;99.90;;;;;;5095237;28;19985;-61
2023/05/06 01:56:01;;;;;;;;;;;13.40;99.90;;;;;;5095166;28;20087;-61
2023/05/06 01:58:27;;;;;;;;;;;13.40;99.90;;;;;;5095213;28;20463;-62
2023/05/06 02:00:52;;;;;;;;;;;13.40;99.90;;;;;;5095092;28;20004;-60
2023/05/06 02:03:18;;;;;;;;;;;13.40;99.90;;;;;;5094973;28;20012;-61
2023/05/06 02:05:43;;;;;;;;;;;13.40;99.90;;;;;;5095151;28;19985;-61
2023/05/06 02:08:09;;;;;;;;;;;13.40;99.90;;;;;;5095258;28;20029;-60
2023/05/06 02:10:34;;;;;;;;;;;13.40;99.90;;;;;;5094745;28;20032;-62
2023/05/06 02:13:00;;;;;;;;;;;13.30;99.90;;;;;;5095004;28;19985;-61
2023/05/06 02:15:25;;;;;;;;;;;13.30;99.90;;;;;;5094852;28;19988;-60
2023/05/06 02:17:51;;;;;;;;;;;13.30;99.90;;;;;;5094771;28;20024;-61
2023/05/06 02:20:16;;;;;;;;;;;13.20;99.90;;;;;;5094811;28;20011;-61
2023/05/06 02:22:42;;;;;;;;;;;13.10;99.90;;;;;;5094675;28;19985;-62
2023/05/06 02:25:08;;;;;;;;;;;13.10;99.90;;;;;;5094604;28;19988;-62
2023/05/06 02:27:33;;;;;;;;;;;13.10;99.90;;;;;;5094530;28;19989;-61
2023/05/06 02:29:59;;;;;;;;;;;13.10;99.90;;;;;;5094599;28;19995;-61
2023/05/06 02:32:24;;;;;;;;;;;13.10;99.90;;;;;;5094516;28;19991;-60
2023/05/06 02:34:52;;;;;;;;;;;13.00;99.90;;;;;;5094464;28;19996;-61
2023/05/06 02:37:17;;;;;;;;;;;13.00;99.90;;;;;;5094783;28;19997;-61
2023/05/06 02:39:43;;;;;;;;;;;13.00;99.90;;;;;;5094095;28;20025;-60
2023/05/06 02:42:11;;;;;;;;;;;13.00;99.90;;;;;;5094293;28;19988;-62
2023/05/06 02:44:37;;;;;;;;;;;13.00;99.90;;;;;;5094626;28;20011;-61
2023/05/06 02:47:02;;;;;;;;;;;13.00;99.90;;;;;;5094565;28;20142;-62
2023/05/06 02:49:28;;;;;;;;;;;13.00;99.90;;;;;;5093974;28;20346;-61
2023/05/06 02:51:54;;;;;;;;;;;12.90;99.90;;;;;;5094216;28;19985;-61
2023/05/06 02:54:19;;;;;;;;;;;12.90;99.90;;;;;;5094174;28;19989;-60
2023/05/06 02:56:45;;;;;;;;;;;12.90;99.90;;;;;;5094102;28;20092;-61
2023/05/06 02:59:10;;;;;;;;;;;12.90;99.90;;;;;;5094192;28;19985;-61
2023/05/06 03:01:36;;;;;;;;;;;12.80;99.90;;;;;;5094330;28;20117;-62
2023/05/06 03:04:02;;;;;;;;;;;12.80;99.90;;;;;;5094122;28;20443;-62
2023/05/06 03:06:28;;;;;;;;;;;12.70;99.90;;;;;;5094245;28;19989;-61
2023/05/06 03:08:53;;;;;;;;;;;12.70;99.90;;;;;;5093814;28;19992;-60
2023/05/06 03:11:19;;;;;;;;;;;12.70;99.90;;;;;;5093957;28;19989;-61
2023/05/06 03:13:45;;;;;;;;;;;12.70;99.90;;;;;;5093839;28;19989;-60
2023/05/06 03:16:12;;;;;;;;;;;12.70;99.90;;;;;;5094011;28;20038;-61
2023/05/06 03:18:37;;;;;;;;;;;12.60;99.90;;;;;;5093845;28;19985;-61
2023/05/06 03:21:03;;;;;;;;;;;12.60;99.90;;;;;;5093652;28;20015;-61
2023/05/06 03:23:29;;;;;;;;;;;12.50;99.90;;;;;;5093884;28;20370;-61
2023/05/06 03:25:55;;;;;;;;;;;12.50;99.90;;;;;;5093904;28;19985;-60
2023/05/06 03:28:20;;;;;;;;;;;12.50;99.90;;;;;;5093727;28;20358;-60
2023/05/06 03:30:46;;;;;;;;;;;12.50;99.90;;;;;;5093748;28;19985;-60
2023/05/06 03:33:11;;;;;;;;;;;12.50;99.90;;;;;;5093723;28;20443;-61
2023/05/06 03:35:37;;;;;;;;;;;12.50;99.90;;;;;;5093710;28;20401;-61
2023/05/06 03:38:02;;;;;;;;;;;12.50;99.90;;;;;;5093462;28;20388;-61
2023/05/06 03:40:28;;;;;;;;;;;12.50;99.90;;;;;;5093535;28;20114;-60
2023/05/06 03:42:53;;;;;;;;;;;12.50;99.90;;;;;;5093550;28;20008;-60
2023/05/06 03:45:19;;;;;;;;;;;12.50;99.90;;;;;;5093559;28;20439;-61
2023/05/06 03:47:45;;;;;;;;;;;12.40;99.90;;;;;;5093597;28;20359;-61
2023/05/06 03:50:10;;;;;;;;;;;12.40;99.90;;;;;;5093555;28;20413;-61
2023/05/06 03:52:36;;;;;;;;;;;12.30;99.90;;;;;;5093260;28;20397;-61
2023/05/06 03:55:02;;;;;;;;;;;12.30;99.90;;;;;;5093797;28;19996;-60
2023/05/06 03:57:27;;;;;;;;;;;12.30;99.90;;;;;;5093755;28;19988;-62
2023/05/06 03:59:53;;;;;;;;;;;12.20;99.90;;;;;;5093348;28;20004;-60
2023/05/06 04:02:18;;;;;;;;;;;12.20;99.90;;;;;;5096056;28;20415;-61
2023/05/06 04:04:44;;;;;;;;;;;12.20;99.90;;;;;;5097391;28;19985;-60
2023/05/06 04:07:09;;;;;;;;;;;12.20;99.90;;;;;;5097123;28;19995;-61
2023/05/06 04:09:35;;;;;;;;;;;12.30;99.90;;;;;;5097204;28;19992;-60
2023/05/06 04:12:01;;;;;;;;;;;12.30;99.90;;;;;;5097542;28;20401;-60
2023/05/06 04:14:27;;;;;;;;;;;12.20;99.90;;;;;;5097165;28;20034;-62
2023/05/06 04:16:52;;;;;;;;;;;12.20;99.90;;;;;;5097082;28;20075;-62
2023/05/06 04:19:19;;;;;;;;;;;12.30;99.90;;;;;;5097180;28;19988;-61
2023/05/06 04:21:44;;;;;;;;;;;12.40;99.90;;;;;;5097221;28;19995;-61
2023/05/06 04:24:10;;;;;;;;;;;12.40;99.90;;;;;;5096942;28;19985;-61
2023/05/06 04:26:35;;;;;;;;;;;12.40;99.90;;;;;;5097030;28;19985;-61
2023/05/06 04:29:01;;;;;;;;;;;12.50;99.90;;;;;;5097245;28;20038;-61
2023/05/06 04:31:31;;;;;;;;;;;12.50;99.90;;;;;;5096817;28;20362;-61
2023/05/06 04:33:56;;;;;;;;;;;12.60;99.90;;;;;;5097082;28;19989;-62
2023/05/06 04:36:22;;;;;;;;;;;12.60;99.90;;;;;;5096683;28;20431;-62
2023/05/06 04:38:48;;;;;;;;;;;12.60;99.90;;;;;;5096548;28;20429;-61
2023/05/06 04:41:14;;;;;;;;;;;12.60;99.90;;;;;;5096628;28;20015;-61
2023/05/06 04:43:40;;;;;;;;;;;12.60;99.90;;;;;;5096539;28;20012;-62
2023/05/06 04:46:05;;;;;;;;;;;12.70;99.90;;;;;;5096723;28;20076;-61
2023/05/06 04:48:31;;;;;;;;;;;12.70;99.90;;;;;;5096749;28;19989;-60
2023/05/06 04:50:56;;;;;;;;;;;12.70;99.90;;;;;;5096309;28;19985;-62
2023/05/06 04:53:22;;;;;;;;;;;12.60;99.90;;;;;;5096535;28;19992;-62
2023/05/06 04:55:48;;;;;;;;;;;12.60;99.90;;;;;;5096657;28;20458;-62
2023/05/06 04:58:13;;;;;;;;;;;12.50;99.90;;;;;;5096443;28;20354;-61
2023/05/06 05:00:39;;;;;;;;;;;12.30;99.90;;;;;;5096351;28;20100;-61
2023/05/06 05:03:04;;;;;;;;;;;12.30;99.90;;;;;;5096208;28;20114;-61
2023/05/06 05:05:31;;;;;;;;;;;12.30;99.90;;;;;;5096008;28;20042;-61
2023/05/06 05:07:56;;;;;;;;;;;12.40;99.90;;;;;;5096239;28;20393;-61
2023/05/06 05:10:22;;;;;;;;;;;12.30;99.90;;;;;;5096113;28;19985;-61
2023/05/06 05:12:47;;;;;;;;;;;12.30;99.90;;;;;;5096073;28;20469;-62
2023/05/06 05:15:13;;;;;;;;;;;12.30;99.90;;;;;;5096063;28;20482;-61
2023/05/06 05:17:39;;;;;;;;;;;12.30;99.90;;;;;;5096060;28;20359;-61
2023/05/06 05:20:04;;;;;;;;;;;12.50;99.90;;;;;;5095882;28;20008;-62
2023/05/06 05:22:30;;;;;;;;;;;12.60;99.90;;;;;;5095931;28;20492;-62
2023/05/06 05:24:56;;;;;;;;;;;12.50;99.90;;;;;;5096168;28;19996;-63
2023/05/06 05:27:22;;;;;;;;;;;12.60;99.90;;;;;;5095661;28;20028;-62
2023/05/06 05:29:47;;;;;;;;;;;12.60;99.90;;;;;;5096065;28;20091;-62
2023/05/06 05:32:13;;;;;;;;;;;12.60;99.90;;;;;;5095765;28;20081;-62
2023/05/06 05:34:39;;;;;;;;;;;12.70;99.90;;;;;;5095401;28;19988;-62
2023/05/06 05:37:04;;;;;;;;;;;12.90;99.90;;;;;;5095814;28;19985;-62
2023/05/06 05:39:30;;;;;;;;;;;13.00;99.90;;;;;;5095351;28;20070;-62
2023/05/06 05:41:55;;;;;;;;;;;13.00;99.90;;;;;;5095493;28;20038;-62
2023/05/06 05:44:21;;;;;;;;;;;13.00;99.90;;;;;;5095380;28;20004;-62
2023/05/06 05:46:47;;;;;;;;;;;13.20;99.90;;;;;;5095773;28;19989;-61
2023/05/06 05:49:12;;;;;;;;;;;13.20;99.90;;;;;;5095205;28;19989;-61
2023/05/06 05:51:38;;;;;;;;;;;13.30;99.90;;;;;;5095241;28;20071;-61
2023/05/06 05:54:03;;;;;;;;;;;13.50;99.90;;;;;;5095284;28;19989;-61
2023/05/06 05:56:29;;;;;;;;;;;13.70;99.90;;;;;;5095577;28;19999;-60
2023/05/06 05:58:54;;;;;;;;;;;13.80;99.90;;;;;;5095151;28;19985;-62
2023/05/06 06:01:20;;;;;;;;;;;13.90;99.90;;;;;;5095549;28;20100;-61
2023/05/06 06:03:46;;;;;;;;;;;14.00;99.90;;;;;;5095010;28;19985;-62
2023/05/06 06:06:11;;;;;;;;;;;14.10;99.90;;;;;;5094885;28;19995;-61
2023/05/06 06:08:37;;;;;;;;;;;14.30;99.90;;;;;;5095288;28;19992;-62
2023/05/06 06:11:04;;;;;;;;;;;14.50;99.90;;;;;;5095269;28;20461;-61
2023/05/06 06:13:30;;;;;;;;;;;14.60;99.90;;;;;;5094900;28;19989;-61
2023/05/06 06:15:55;;;;;;;;;;;14.80;99.90;;;;;;5094831;28;19985;-62
2023/05/06 06:18:21;;;;;;;;;;;15.00;99.90;;;;;;5094895;28;19989;-61
2023/05/06 06:20:47;;;;;;;;;;;15.30;99.90;;;;;;5094727;28;20009;-61
2023/05/06 06:23:12;;;;;;;;;;;15.60;99.90;;;;;;5094943;28;19996;-62
2023/05/06 06:25:38;;;;;;;;;;;15.80;99.90;;;;;;5094263;28;20083;-62
2023/05/06 06:28:03;;;;;;;;;;;16.00;99.90;;;;;;5094688;28;20015;-61
2023/05/06 06:30:29;;;;;;;;;;;16.20;99.90;;;;;;5094598;28;19989;-62
2023/05/06 06:32:55;;;;;;;;;;;16.20;99.90;;;;;;5094545;28;20457;-62
2023/05/06 06:35:22;;;;;;;;;;;16.40;99.90;;;;;;5094937;28;19989;-61
2023/05/06 06:37:48;;;;;;;;;;;16.60;99.90;;;;;;5094449;28;19989;-61
2023/05/06 06:40:13;;;;;;;;;;;16.70;99.90;;;;;;5094294;28;20394;-62
2023/05/06 06:42:39;;;;;;;;;;;16.90;99.90;;;;;;5094437;28;19989;-62
2023/05/06 06:45:06;;;;;;;;;;;17.10;99.90;;;;;;5094148;28;20009;-62
2023/05/06 06:47:32;;;;;;;;;;;17.30;99.90;;;;;;5094087;28;19985;-62
2023/05/06 06:49:57;;;;;;;;;;;17.50;99.90;;;;;;5094608;28;19989;-62
2023/05/06 06:52:23;;;;;;;;;;;17.80;99.90;;;;;;5094526;28;20027;-62
2023/05/06 06:54:48;;;;;;;;;;;18.90;99.90;;;;;;5092832;28;20039;-61
2023/05/06 06:57:14;;;;;;;;;;;22.10;96.30;;;;;;5094318;28;20080;-62
2023/05/06 06:59:39;;;;;;;;;;;25.20;68.60;;;;;;5094126;28;20013;-62
2023/05/06 07:02:05;;;;;;;;;;;27.60;55.40;;;;;;5093830;28;20031;-62
2023/05/06 07:04:31;;;;;;;;;;;29.40;49.80;;;;;;5094175;28;20432;-62
2023/05/06 07:06:56;;;;;;;;;;;30.40;49.10;;;;;;5094324;28;19995;-61
2023/05/06 07:09:22;;;;;;;;;;;31.70;45.20;;;;;;5094191;28;20440;-61
2023/05/06 07:11:48;;;;;;;;;;;32.60;43.40;;;;;;5093961;28;20439;-62
2023/05/06 07:14:13;;;;;;;;;;;33.20;42.40;;;;;;5094172;28;19985;-61
2023/05/06 07:16:39;;;;;;;;;;;33.40;43.30;;;;;;5093686;28;19997;-62
2023/05/06 07:19:04;;;;;;;;;;;33.70;41.60;;;;;;5094037;28;20011;-62
2023/05/06 07:21:33;;;;;;;;;;;34.20;41.40;;;;;;5094002;28;20378;-61
2023/05/06 07:23:58;;;;;;;;;;;34.60;40.20;;;;;;5093763;28;20042;-61
2023/05/06 07:26:24;;;;;;;;;;;35.30;39.50;;;;;;5094098;28;20075;-61
2023/05/06 07:28:49;;;;;;;;;;;35.80;38.90;;;;;;5093778;28;19993;-61
2023/05/06 07:31:19;;;;;;;;;;;36.00;38.50;;;;;;5093634;28;19985;-62
2023/05/06 07:33:44;;;;;;;;;;;35.90;37.00;;;;;;5093940;28;19993;-62
2023/05/06 07:36:10;;;;;;;;;;;36.00;37.40;;;;;;5094723;28;19989;-63
2023/05/06 07:38:35;;;;;;;;;;;36.80;37.90;;;;;;5098047;28;19989;-61
2023/05/06 07:41:01;;;;;;;;;;;37.00;36.30;;;;;;5097703;28;20001;-61
2023/05/06 07:43:26;;;;;;;;;;;36.90;35.60;;;;;;5097887;28;20001;-63
2023/05/06 07:45:57;;;;;;;;;;;37.00;35.00;;;;;;5097610;28;19988;-62
2023/05/06 07:48:23;;;;;;;;;;;37.20;36.20;;;;;;5097717;28;19984;-61
2023/05/06 07:50:48;;;;;;;;;;;37.50;35.00;;;;;;5097663;28;20401;-63
2023/05/06 07:53:14;;;;;;;;;;;37.80;34.90;;;;;;5097629;28;19989;-62
2023/05/06 07:55:40;;;;;;;;;;;37.80;34.60;;;;;;5097512;28;19989;-62
2023/05/06 07:58:05;;;;;;;;;;;38.10;34.10;;;;;;5097693;28;20084;-62
2023/05/06 08:00:31;;;;;;;;;;;37.80;34.60;;;;;;5097406;28;20044;-63
2023/05/06 08:02:56;;;;;;;;;;;37.60;34.70;;;;;;5097373;28;20012;-62
2023/05/06 08:05:22;;;;;;;;;;;37.40;34.00;;;;;;5097691;28;19988;-63
2023/05/06 08:07:49;;;;;;;;;;;37.00;30.60;;;;;;5097399;28;19984;-63
2023/05/06 08:10:14;;;;;;;;;;;36.60;29.60;;;;;;5097374;28;20073;-63
2023/05/06 08:12:40;;;;;;;;;;;36.10;32.30;;;;;;5097392;28;20035;-62
2023/05/06 08:15:06;;;;;;;;;;;35.70;30.90;;;;;;5097044;28;20082;-62
2023/05/06 08:17:31;;;;;;;;;;;36.30;32.50;;;;;;5097264;28;19992;-62
2023/05/06 08:19:57;;;;;;;;;;;36.70;32.50;;;;;;5096960;28;20370;-63
2023/05/06 08:22:22;;;;;;;;;;;37.30;31.70;;;;;;5097644;28;20035;-63
2023/05/06 08:24:48;;;;;;;;;;;37.30;29.10;;;;;;5097357;28;20042;-61
2023/05/06 08:27:13;;;;;;;;;;;36.30;27.60;;;;;;5096968;28;20084;-62
2023/05/06 08:29:39;;;;;;;;;;;36.00;29.40;;;;;;5096866;28;19989;-61
2023/05/06 08:32:05;;;;;;;;;;;35.60;27.50;;;;;;5096910;28;20041;-63
2023/05/06 08:34:30;;;;;;;;;;;35.00;30.40;;;;;;5096878;28;19991;-62
2023/05/06 08:36:56;;;;;;;;;;;35.20;29.60;;;;;;5096731;28;20435;-64
2023/05/06 08:39:22;;;;;;;;;;;35.70;31.10;;;;;;5096561;28;20020;-63
2023/05/06 08:41:50;;;;;;;;;;;35.80;30.00;;;;;;5096844;28;19985;-63
2023/05/06 08:44:17;;;;;;;;;;;35.80;30.50;;;;;;5096268;28;20012;-60
2023/05/06 08:46:44;;;;;;;;;;;36.10;29.70;;;;;;5096111;28;19989;-59
2023/05/06 08:49:09;;;;;;;;;;;35.90;30.00;;;;;;5096642;28;19996;-60
2023/05/06 08:51:36;;;;;;;;;;;36.00;31.10;;;;;;5096448;28;19984;-60
2023/05/06 08:54:02;;;;;;;;;;;35.90;31.80;;;;;;5096608;28;19993;-63
2023/05/06 08:56:29;;;;;;;;;;;36.10;31.30;;;;;;5096763;28;20024;-62
2023/05/06 08:58:57;;;;;;;;;;;36.10;29.60;;;;;;5096436;28;19996;-61
2023/05/06 09:01:23;;;;;;;;;;;35.80;31.20;;;;;;5096277;28;20005;-63
2023/05/06 09:03:50;;;;;;;;;;;35.70;30.80;;;;;;5096563;28;19996;-62
2023/05/06 09:06:15;;;;;;;;;;;35.20;29.20;;;;;;5096237;28;20087;-61
2023/05/06 09:08:41;;;;;;;;;;;34.90;29.70;;;;;;5096141;28;20428;-63
2023/05/06 09:11:20;;;;;;;;;;;34.90;29.60;;;;;;5096240;28;20088;-62
2023/05/06 09:13:45;;;;;;;;;;;34.40;29.50;;;;;;5096060;28;20450;-62
2023/05/06 09:16:24;;;;;;;;;;;34.50;30.70;;;;;;5096069;28;19985;-62
2023/05/06 09:18:50;;;;;;;;;;;34.80;29.70;;;;;;5096174;28;20068;-62
2023/05/06 09:21:16;;;;;;;;;;;34.90;31.80;;;;;;5095903;28;20535;-61
2023/05/06 09:23:41;;;;;;;;;;;35.30;29.70;;;;;;5095890;28;20346;-62
2023/05/06 09:26:08;;;;;;;;;;;34.90;30.90;;;;;;5095576;28;20356;-62
2023/05/06 09:28:33;;;;;;;;;;;33.60;30.40;;;;;;5095972;28;19989;-61
2023/05/06 09:30:59;;;;;;;;;;;33.60;32.90;;;;;;5096047;28;20000;-62
2023/05/06 09:33:26;;;;;;;;;;;34.00;32.00;;;;;;5096008;28;20328;-61
2023/05/06 09:35:52;;;;;;;;;;;34.50;33.70;;;;;;5095893;28;20021;-62
2023/05/06 09:38:17;;;;;;;;;;;34.60;32.30;;;;;;5095699;28;19985;-63
2023/05/06 09:40:43;;;;;;;;;;;34.20;30.60;;;;;;5095173;28;20084;-62
2023/05/06 09:43:09;;;;;;;;;;;33.60;31.10;;;;;;5095344;28;20091;-63
2023/05/06 09:45:35;;;;;;;;;;;33.30;33.60;;;;;;5095434;28;20371;-61
2023/05/06 09:48:01;;;;;;;;;;;33.20;31.80;;;;;;5095538;28;19989;-63
2023/05/06 09:50:27;;;;;;;;;;;33.00;30.90;;;;;;5095546;28;19996;-62
2023/05/06 09:52:54;;;;;;;;;;;32.90;32.20;;;;;;5095313;28;20038;-63
2023/05/06 09:55:20;;;;;;;;;;;33.10;31.10;;;;;;5095401;28;20154;-63
2023/05/06 09:57:46;;;;;;;;;;;33.50;33.50;;;;;;5095203;28;20428;-61
2023/05/06 10:00:12;;;;;;;;;;;33.60;32.60;;;;;;5094178;28;20012;-62
2023/05/06 10:02:39;;;;;;;;;;;33.60;33.30;;;;;;5095118;28;20014;-61
2023/05/06 10:05:05;;;;;;;;;;;33.40;32.80;;;;;;5095031;28;19989;-63
2023/05/06 10:07:30;;;;;;;;;;;33.80;32.80;;;;;;5095066;28;19992;-63
2023/05/06 10:09:57;;;;;;;;;;;33.00;30.40;;;;;;5094938;28;20490;-62
2023/05/06 10:12:24;;;;;;;;;;;32.50;30.90;;;;;;5094951;28;20462;-62
2023/05/06 10:14:49;;;;;;;;;;;32.80;31.90;;;;;;5095264;28;20511;-61
2023/05/06 10:17:16;;;;;;;;;;;33.00;32.10;;;;;;5095206;28;20123;-62
2023/05/06 10:19:43;;;;;;;;;;;33.00;30.70;;;;;;5094831;28;20463;-62
2023/05/06 10:22:25;;;;;;;;;;;32.40;32.30;;;;;;5095071;28;19989;-61
2023/05/06 10:25:04;;;;;;;;;;;33.00;34.90;;;;;;5094829;28;19992;-62
2023/05/06 10:27:31;;;;;;;;;;;33.10;32.70;;;;;;5094660;28;20081;-61
2023/05/06 10:29:58;;;;;;;;;;;33.30;32.30;;;;;;5094663;28;19985;-63
2023/05/06 10:32:25;;;;;;;;;;;33.70;32.50;;;;;;5094622;28;20029;-63
2023/05/06 10:34:55;;;;;;;;;;;32.90;30.30;;;;;;5094887;28;20057;-63
2023/05/06 10:37:24;;;;;;;;;;;32.50;31.90;;;;;;5094480;28;20004;-64
2023/05/06 10:39:52;;;;;;;;;;;32.80;30.20;;;;;;5094058;28;20487;-62
2023/05/06 10:42:17;;;;;;;;;;;32.70;31.90;;;;;;5094556;28;19992;-63
2023/05/06 10:44:54;;;;;;;;;;;33.10;32.80;;;;;;5094594;28;20004;-61
2023/05/06 10:47:21;;;;;;;;;;;33.40;32.50;;;;;;5094270;28;20081;-62
2023/05/06 10:50:06;;;;;;;;;;;33.80;31.10;;;;;;5094339;28;20443;-63
2023/05/06 10:52:45;;;;;;;;;;;34.20;29.60;;;;;;5086722;28;19989;-61
2023/05/06 10:55:26;;;;;;;;;;;33.80;31.30;;;;;;5094044;28;19989;-62
2023/05/06 10:58:15;;;;;;;;;;;33.30;30.70;;;;;;5094037;28;20435;-62
2023/05/06 11:00:51;;;;;;;;;;;33.30;30.70;;;;;;5088378;28;20060;-61
2023/05/06 11:03:20;;;;;;;;;;;33.80;31.00;;;;;;5094105;28;20438;-62
2023/05/06 11:05:47;;;;;;;;;;;33.80;29.50;;;;;;5094047;28;19989;-62
2023/05/06 11:08:13;;;;;;;;;;;33.70;29.80;;;;;;5094055;28;19989;-61
2023/05/06 11:10:39;;;;;;;;;;;33.80;30.60;;;;;;5094055;28;20358;-63
2023/05/06 11:13:18;;;;;;;;;;;33.60;29.30;;;;;;5094005;28;20379;-63
2023/05/06 11:15:45;;;;;;;;;;;33.60;30.10;;;;;;5093847;28;19985;-60
2023/05/06 11:18:35;;;;;;;;;;;33.60;30.50;;;;;;5093849;28;19996;-61
2023/05/06 11:21:01;;;;;;;;;;;33.70;32.90;;;;;;5093728;28;20005;-61
2023/05/06 11:23:51;;;;;;;;;;;34.00;31.10;;;;;;5093687;28;20461;-61
2023/05/06 11:26:16;;;;;;;;;;;34.50;31.30;;;;;;5083437;28;19996;-59
2023/05/06 11:28:43;;;;;;;;;;;34.80;29.80;;;;;;5094061;28;20071;-59
2023/05/06 11:31:09;;;;;;;;;;;34.50;30.00;;;;;;5093759;28;19989;-60
2023/05/06 11:33:35;;;;;;;;;;;33.70;29.10;;;;;;5093719;28;19992;-60
2023/05/06 11:36:02;;;;;;;;;;;33.60;31.70;;;;;;5093659;28;19989;-59
2023/05/06 11:38:48;;;;;;;;;;;33.60;29.70;;;;;;5093655;28;19996;-61
2023/05/06 11:41:14;;;;;;;;;;;34.10;32.00;;;;;;5093490;28;20494;-62
2023/05/06 11:43:45;;;;;;;;;;;34.20;32.40;;;;;;5093522;28;20009;-60
2023/05/06 11:46:10;;;;;;;;;;;34.30;32.60;;;;;;5093547;28;20046;-60
2023/05/06 11:48:36;;;;;;;;;;;34.60;31.80;;;;;;5093586;28;19989;-61
2023/05/06 11:51:01;;;;;;;;;;;34.80;32.20;;;;;;5093448;28;20084;-60
2023/05/06 11:53:28;;;;;;;;;;;34.60;30.50;;;;;;5093536;28;19988;-62
2023/05/06 11:55:54;;;;;;;;;;;34.50;32.80;;;;;;5093545;28;19992;-62
2023/05/06 11:58:23;;;;;;;;;;;34.60;29.40;;;;;;5093783;28;20451;-62
2023/05/06 12:00:51;;;;;;;;;;;34.90;29.10;;;;;;5093357;28;20011;-60
2023/05/06 12:03:18;;;;;;;;;;;34.80;29.60;;;;;;5093788;28;19989;-61
2023/05/06 12:05:43;;;;;;;;;;;34.60;30.60;;;;;;5093202;28;19989;-60
2023/05/06 12:08:10;;;;;;;;;;;34.70;32.10;;;;;;5093707;28;20411;-60
2023/05/06 12:10:35;;;;;;;;;;;34.90;31.20;;;;;;5093471;28;20054;-62
2023/05/06 12:13:01;;;;;;;;;;;34.90;32.30;;;;;;5093421;28;20443;-61
2023/05/06 12:15:27;;;;;;;;;;;35.00;31.70;;;;;;5093295;28;20332;-59
2023/05/06 12:17:53;;;;;;;;;;;34.80;31.20;;;;;;5093552;28;19989;-61
2023/05/06 12:20:20;;;;;;;;;;;34.70;32.80;;;;;;5093186;28;20441;-60
2023/05/06 12:22:45;;;;;;;;;;;34.60;32.30;;;;;;5094991;28;19986;-60
2023/05/06 12:25:14;;;;;;;;;;;34.70;30.60;;;;;;5096981;28;19992;-60
2023/05/06 12:27:39;;;;;;;;;;;34.30;30.30;;;;;;5097052;28;20043;-60
2023/05/06 12:30:07;;;;;;;;;;;34.20;29.90;;;;;;5097262;28;20478;-61
2023/05/06 12:32:33;;;;;;;;;;;33.60;31.10;;;;;;5096828;28;20443;-61
2023/05/06 12:35:04;;;;;;;;;;;33.30;29.50;;;;;;5096691;28;19985;-62
2023/05/06 12:37:30;;;;;;;;;;;33.80;30.20;;;;;;5096817;28;20141;-60
2023/05/06 12:39:56;;;;;;;;;;;34.00;29.30;;;;;;5096829;28;20391;-61
2023/05/06 12:42:22;;;;;;;;;;;34.20;29.30;;;;;;5096746;28;19985;-61
2023/05/06 12:44:48;;;;;;;;;;;34.30;29.40;;;;;;5096883;28;20091;-62
2023/05/06 12:47:20;;;;;;;;;;;34.30;30.80;;;;;;5096599;28;19985;-61
2023/05/06 12:49:48;;;;;;;;;;;34.20;29.70;;;;;;5096676;28;20397;-61
2023/05/06 12:52:14;;;;;;;;;;;34.30;30.90;;;;;;5096592;28;20010;-61
2023/05/06 12:54:40;;;;;;;;;;;34.50;29.60;;;;;;5096714;28;19996;-63
2023/05/06 12:57:06;;;;;;;;;;;34.10;28.70;;;;;;5096804;28;20461;-60
2023/05/06 12:59:32;;;;;;;;;;;33.50;28.00;;;;;;5096334;28;20074;-60
2023/05/06 13:01:57;;;;;;;;;;;33.20;29.00;;;;;;5091331;28;19993;-61
2023/05/06 13:04:23;;;;;;;;;;;33.70;30.00;;;;;;5096204;28;20439;-61
2023/05/06 13:06:49;;;;;;;;;;;34.10;29.70;;;;;;5095297;28;20016;-62
2023/05/06 13:09:15;;;;;;;;;;;34.40;30.90;;;;;;5095896;28;20042;-62
2023/05/06 13:11:41;;;;;;;;;;;34.60;29.40;;;;;;5095690;28;19993;-62
2023/05/06 13:14:06;;;;;;;;;;;34.70;29.60;;;;;;5096052;28;19996;-62
2023/05/06 13:16:32;;;;;;;;;;;34.70;29.10;;;;;;5096138;28;19985;-62
2023/05/06 13:18:57;;;;;;;;;;;34.70;29.50;;;;;;5096032;28;20453;-62
2023/05/06 13:21:23;;;;;;;;;;;34.60;29.50;;;;;;5096175;28;20013;-61
2023/05/06 13:23:49;;;;;;;;;;;33.70;27.10;;;;;;5096070;28;20351;-61
2023/05/06 13:26:16;;;;;;;;;;;33.10;28.00;;;;;;5095850;28;20100;-63
2023/05/06 13:28:41;;;;;;;;;;;33.20;28.80;;;;;;5096117;28;20392;-63
2023/05/06 13:31:07;;;;;;;;;;;33.50;29.60;;;;;;5096102;28;20088;-63
2023/05/06 13:33:33;;;;;;;;;;;34.00;29.50;;;;;;5095704;28;20004;-62
2023/05/06 13:35:58;;;;;;;;;;;34.40;28.30;;;;;;5096030;28;19989;-61
2023/05/06 13:38:24;;;;;;;;;;;34.10;28.20;;;;;;5095696;28;20072;-61
2023/05/06 13:40:50;;;;;;;;;;;34.00;27.20;;;;;;5095344;28;20031;-61
2023/05/06 13:43:19;;;;;;;;;;;33.70;29.40;;;;;;5095666;28;20009;-60
2023/05/06 13:45:45;;;;;;;;;;;33.50;27.90;;;;;;5095545;28;20336;-61
2023/05/06 13:48:11;;;;;;;;;;;33.60;28.90;;;;;;5095252;28;19992;-60
2023/05/06 13:50:37;;;;;;;;;;;33.60;31.00;;;;;;5095399;28;20450;-61
2023/05/06 13:53:03;;;;;;;;;;;33.80;28.60;;;;;;5095613;28;19989;-61
2023/05/06 13:55:28;;;;;;;;;;;34.00;29.90;;;;;;5095661;28;19989;-60
2023/05/06 13:57:54;;;;;;;;;;;34.00;30.10;;;;;;5095198;28;20355;-60
2023/05/06 14:00:20;;;;;;;;;;;34.10;30.50;;;;;;5095312;28;20016;-60
2023/05/06 14:02:45;;;;;;;;;;;34.30;29.80;;;;;;5095002;28;19985;-60
2023/05/06 14:05:11;;;;;;;;;;;34.60;30.70;;;;;;5095096;28;20008;-62
2023/05/06 14:07:36;;;;;;;;;;;34.80;29.10;;;;;;5095297;28;19992;-62
2023/05/06 14:10:02;;;;;;;;;;;34.80;28.80;;;;;;5095145;28;19985;-62
2023/05/06 14:12:28;;;;;;;;;;;34.00;28.90;;;;;;5094963;28;19992;-61